sensor_id;sensor_type;location;lat;lon;timestamp;pressure;altitude;pressure_sealevel;temperature;humidity
5872;BME280;2962;51.312;7.378;2023-02-10T00:00:31;99187.19;;;1.07;100.00
5872;BME280;2962;51.312;7.378;2023-02-10T00:02:56;99189.41;;;1.20;100.00
5872;BME280;2962;51.312;7.378;2023-02-10T00:05:21;99194.75;;;1.25;100.00
5872;BME280;2962;51.312;7.378;2023-02-10T00:07:46;99195.28;;;1.22;100.00
5872;BME280;2962;51.312;7.378;2023-02-10T00:10:12;99188.28;;;1.11;100.00
5872;BME280;2962;51.312;7.378;2023-02-10T00:12:37;99198.78;;;1.22;100.00
5872;BME280;2962;51.312;7.378;2023-02-10T00:15:04;99196.94;;;1.33;100.00
5872;BME280;2962;51.312;7.378;2023-02-10T00:17:30;99198.53;;;1.29;100.00
5872;BME280;2962;51.312;7.378;2023-02-10T00:19:55;99193.34;;;1.07;100.00
5872;BME280;2962;51.312;7.378;2023-02-10T00:22:20;99201.75;;;1.21;100.00
5872;BME280;2962;51.312;7.378;2023-02-10T00:24:46;99200.66;;;1.22;100.00
5872;BME280;2962;51.312;7.378;2023-02-10T00:27:11;99200.66;;;1.12;100.00
5872;BME280;2962;51.312;7.378;2023-02-10T00:29:36;99201.91;;;0.99;100.00
5872;BME280;2962;51.312;7.378;2023-02-10T00:32:01;99201.13;;;1.04;100.00
5872;BME280;2962;51.312;7.378;2023-02-10T00:34:27;99197.97;;;1.17;100.00
5872;BME280;2962;51.312;7.378;2023-02-10T00:36:53;99204.16;;;1.22;100.00
5872;BME280;2962;51.312;7.378;2023-02-10T00:39:18;99207.09;;;1.21;100.00
5872;BME280;2962;51.312;7.378;2023-02-10T00:41:44;99196.09;;;1.22;100.00
5872;BME280;2962;51.312;7.378;2023-02-10T00:44:09;99198.78;;;1.22;100.00
5872;BME280;2962;51.312;7.378;2023-02-10T00:46:34;99192.59;;;1.22;100.00
5872;BME280;2962;51.312;7.378;2023-02-10T00:48:59;99205.78;;;1.24;100.00
5872;BME280;2962;51.312;7.378;2023-02-10T00:51:25;99189.97;;;1.32;100.00
5872;BME280;2962;51.312;7.378;2023-02-10T00:53:50;99207.16;;;1.31;100.00
5872;BME280;2962;51.312;7.378;2023-02-10T00:56:17;99200.69;;;1.32;100.00
5872;BME280;2962;51.312;7.378;2023-02-10T00:58:43;99202.31;;;1.33;100.00
5872;BME280;2962;51.312;7.378;2023-02-10T01:01:08;99205.81;;;1.39;100.00
5872;BME280;2962;51.312;7.378;2023-02-10T01:03:34;99200.72;;;1.42;100.00
5872;BME280;2962;51.312;7.378;2023-02-10T01:05:59;99199.38;;;1.35;100.00
5872;BME280;2962;51.312;7.378;2023-02-10T01:08:25;99209.84;;;1.36;100.00
5872;BME280;2962;51.312;7.378;2023-02-10T01:10:59;99212.25;;;1.38;100.00
5872;BME280;2962;51.312;7.378;2023-02-10T01:13:25;99205.25;;;1.32;100.00
5872;BME280;2962;51.312;7.378;2023-02-10T01:15:50;99212.28;;;1.43;100.00
5872;BME280;2962;51.312;7.378;2023-02-10T01:18:15;99214.69;;;1.39;100.00
5872;BME280;2962;51.312;7.378;2023-02-10T01:20:42;99229.16;;;1.38;100.00
5872;BME280;2962;51.312;7.378;2023-02-10T01:23:08;99222.47;;;1.36;100.00
5872;BME280;2962;51.312;7.378;2023-02-10T01:25:34;99210.34;;;1.28;100.00
5872;BME280;2962;51.312;7.378;2023-02-10T01:28:00;99225.34;;;1.14;100.00
5872;BME280;2962;51.312;7.378;2023-02-10T01:30:25;99222.66;;;1.14;100.00
5872;BME280;2962;51.312;7.378;2023-02-10T01:32:55;99222.13;;;1.17;100.00
5872;BME280;2962;51.312;7.378;2023-02-10T01:35:21;99217.06;;;1.26;100.00
5872;BME280;2962;51.312;7.378;2023-02-10T01:37:46;99218.88;;;1.10;100.00
5872;BME280;2962;51.312;7.378;2023-02-10T01:40:12;99223.72;;;1.13;100.00
5872;BME280;2962;51.312;7.378;2023-02-10T01:42:37;99236.13;;;1.24;100.00
5872;BME280;2962;51.312;7.378;2023-02-10T01:45:14;99237.72;;;1.20;100.00
5872;BME280;2962;51.312;7.378;2023-02-10T01:47:42;99229.16;;;1.23;100.00
5872;BME280;2962;51.312;7.378;2023-02-10T01:50:09;99219.38;;;0.96;100.00
5872;BME280;2962;51.312;7.378;2023-02-10T01:52:34;99232.00;;;1.01;100.00
5872;BME280;2962;51.312;7.378;2023-02-10T01:55:04;99226.50;;;0.81;100.00
5872;BME280;2962;51.312;7.378;2023-02-10T01:57:31;99230.13;;;1.02;100.00
5872;BME280;2962;51.312;7.378;2023-02-10T01:59:58;99238.75;;;1.14;100.00
5872;BME280;2962;51.312;7.378;2023-02-10T02:02:25;99233.06;;;1.00;100.00
5872;BME280;2962;51.312;7.378;2023-02-10T02:04:52;99232.88;;;1.17;100.00
5872;BME280;2962;51.312;7.378;2023-02-10T02:07:22;99248.97;;;1.12;100.00
5872;BME280;2962;51.312;7.378;2023-02-10T02:09:49;99244.97;;;1.25;100.00
5872;BME280;2962;51.312;7.378;2023-02-10T02:12:29;99246.63;;;1.31;100.00
5872;BME280;2962;51.312;7.378;2023-02-10T02:23:46;99247.31;;;1.11;100.00
5872;BME280;2962;51.312;7.378;2023-02-10T02:26:32;99252.50;;;1.28;100.00
5872;BME280;2962;51.312;7.378;2023-02-10T02:32:08;99253.84;;;1.25;100.00
5872;BME280;2962;51.312;7.378;2023-02-10T02:37:26;99248.16;;;1.16;100.00
5872;BME280;2962;51.312;7.378;2023-02-10T02:39:54;99257.59;;;1.29;100.00
5872;BME280;2962;51.312;7.378;2023-02-10T02:42:24;99257.06;;;1.27;100.00
5872;BME280;2962;51.312;7.378;2023-02-10T02:44:53;99251.94;;;1.26;100.00
5872;BME280;2962;51.312;7.378;2023-02-10T03:01:23;99274.44;;;1.14;100.00
5872;BME280;2962;51.312;7.378;2023-02-10T03:03:52;99274.75;;;1.18;100.00
5872;BME280;2962;51.312;7.378;2023-02-10T03:06:18;99267.69;;;0.96;100.00
5872;BME280;2962;51.312;7.378;2023-02-10T03:08:43;99271.53;;;1.16;100.00
5872;BME280;2962;51.312;7.378;2023-02-10T03:11:09;99271.31;;;1.33;100.00
5872;BME280;2962;51.312;7.378;2023-02-10T03:13:34;99270.00;;;1.35;100.00
5872;BME280;2962;51.312;7.378;2023-02-10T03:16:00;99281.91;;;1.02;100.00
5872;BME280;2962;51.312;7.378;2023-02-10T03:18:25;99277.06;;;0.99;100.00
5872;BME280;2962;51.312;7.378;2023-02-10T03:20:51;99272.34;;;1.16;100.00
5872;BME280;2962;51.312;7.378;2023-02-10T03:23:16;99272.56;;;1.15;100.00
5872;BME280;2962;51.312;7.378;2023-02-10T03:25:44;99269.34;;;1.08;100.00
5872;BME280;2962;51.312;7.378;2023-02-10T03:28:09;99275.72;;;0.96;100.00
5872;BME280;2962;51.312;7.378;2023-02-10T03:30:36;99274.75;;;1.18;100.00
5872;BME280;2962;51.312;7.378;2023-02-10T03:33:01;99267.75;;;1.12;100.00
5872;BME280;2962;51.312;7.378;2023-02-10T03:35:27;99266.03;;;0.95;100.00
5872;BME280;2962;51.312;7.378;2023-02-10T03:37:52;99253.09;;;0.82;100.00
5872;BME280;2962;51.312;7.378;2023-02-10T03:40:17;99248.75;;;0.71;100.00
5872;BME280;2962;51.312;7.378;2023-02-10T03:42:43;99244.41;;;0.65;100.00
5872;BME280;2962;51.312;7.378;2023-02-10T03:45:08;99243.28;;;0.56;100.00
5872;BME280;2962;51.312;7.378;2023-02-10T03:47:33;99248.66;;;0.61;100.00
5872;BME280;2962;51.312;7.378;2023-02-10T03:49:59;99239.38;;;0.73;100.00
5872;BME280;2962;51.312;7.378;2023-02-10T03:52:24;99235.81;;;0.58;100.00
5872;BME280;2962;51.312;7.378;2023-02-10T03:54:49;99232.56;;;0.61;100.00
5872;BME280;2962;51.312;7.378;2023-02-10T03:57:15;99230.91;;;0.49;100.00
5872;BME280;2962;51.312;7.378;2023-02-10T03:59:40;99232.56;;;0.61;100.00
5872;BME280;2962;51.312;7.378;2023-02-10T04:02:05;99236.84;;;0.57;100.00
5872;BME280;2962;51.312;7.378;2023-02-10T04:04:31;99240.09;;;0.64;100.00
5872;BME280;2962;51.312;7.378;2023-02-10T04:06:56;99244.66;;;0.58;100.00
5872;BME280;2962;51.312;7.378;2023-02-10T04:09:21;99240.69;;;0.71;100.00
5872;BME280;2962;51.312;7.378;2023-02-10T04:11:46;99246.34;;;0.69;100.00
5872;BME280;2962;51.312;7.378;2023-02-10T04:14:12;99238.47;;;0.58;100.00
5872;BME280;2962;51.312;7.378;2023-02-10T04:16:37;99255.28;;;0.48;100.00
5872;BME280;2962;51.312;7.378;2023-02-10T04:19:02;99262.34;;;0.59;100.00
5872;BME280;2962;51.312;7.378;2023-02-10T04:21:28;99262.53;;;0.47;100.00
5872;BME280;2962;51.312;7.378;2023-02-10T04:23:53;99261.56;;;0.64;100.00
5872;BME280;2962;51.312;7.378;2023-02-10T04:26:18;99256.72;;;0.61;100.00
5872;BME280;2962;51.312;7.378;2023-02-10T04:28:44;99264.75;;;0.56;100.00
5872;BME280;2962;51.312;7.378;2023-02-10T04:31:09;99259.94;;;0.58;100.00
5872;BME280;2962;51.312;7.378;2023-02-10T04:33:35;99260.06;;;0.41;100.00
5872;BME280;2962;51.312;7.378;2023-02-10T04:36:00;99264.84;;;0.34;100.00
5872;BME280;2962;51.312;7.378;2023-02-10T04:38:28;99261.91;;;0.35;100.00
5872;BME280;2962;51.312;7.378;2023-02-10T04:40:53;99252.22;;;0.29;100.00
5872;BME280;2962;51.312;7.378;2023-02-10T04:43:19;99260.28;;;0.34;100.00
5872;BME280;2962;51.312;7.378;2023-02-10T04:45:44;99265.09;;;0.32;100.00
5872;BME280;2962;51.312;7.378;2023-02-10T04:48:09;99256.31;;;0.05;100.00
5872;BME280;2962;51.312;7.378;2023-02-10T04:50:37;99265.28;;;0.20;100.00
5872;BME280;2962;51.312;7.378;2023-02-10T04:53:03;99263.28;;;0.06;100.00
5872;BME280;2962;51.312;7.378;2023-02-10T04:55:29;99267.09;;;0.15;100.00
5872;BME280;2962;51.312;7.378;2023-02-10T04:57:54;99265.19;;;0.10;100.00
5872;BME280;2962;51.312;7.378;2023-02-10T05:00:19;99261.72;;;0.15;100.00
5872;BME280;2962;51.312;7.378;2023-02-10T05:02:44;99249.84;;;0.01;100.00
5872;BME280;2962;51.312;7.378;2023-02-10T05:05:11;99264.13;;;0.11;100.00
5872;BME280;2962;51.312;7.378;2023-02-10T05:07:36;99266.84;;;0.16;100.00
5872;BME280;2962;51.312;7.378;2023-02-10T05:10:02;99267.63;;;0.12;100.00
5872;BME280;2962;51.312;7.378;2023-02-10T05:12:27;99270.88;;;0.19;100.00
5872;BME280;2962;51.312;7.378;2023-02-10T05:14:52;99268.72;;;0.16;100.00
5872;BME280;2962;51.312;7.378;2023-02-10T05:17:18;99260.88;;;0.04;100.00
5872;BME280;2962;51.312;7.378;2023-02-10T05:19:43;99266.00;;;0.11;100.00
5872;BME280;2962;51.312;7.378;2023-02-10T05:22:08;99270.53;;;0.10;100.00
5872;BME280;2962;51.312;7.378;2023-02-10T05:24:33;99282.38;;;0.14;100.00
5872;BME280;2962;51.312;7.378;2023-02-10T05:26:59;99277.31;;;0.18;100.00
5872;BME280;2962;51.312;7.378;2023-02-10T05:29:24;99275.00;;;-0.01;100.00
5872;BME280;2962;51.312;7.378;2023-02-10T05:31:49;99281.44;;;-0.02;100.00
5872;BME280;2962;51.312;7.378;2023-02-10T05:34:15;99283.31;;;-0.02;100.00
5872;BME280;2962;51.312;7.378;2023-02-10T05:36:40;99288.09;;;-0.04;100.00
5872;BME280;2962;51.312;7.378;2023-02-10T05:39:08;99289.22;;;0.00;100.00
5872;BME280;2962;51.312;7.378;2023-02-10T05:41:55;99295.44;;;0.06;100.00
5872;BME280;2962;51.312;7.378;2023-02-10T05:44:22;99295.13;;;0.02;100.00
5872;BME280;2962;51.312;7.378;2023-02-10T05:46:48;99299.19;;;0.05;100.00
5872;BME280;2962;51.312;7.378;2023-02-10T05:49:14;99306.69;;;0.08;100.00
5872;BME280;2962;51.312;7.378;2023-02-10T05:51:39;99309.09;;;0.36;100.00
5872;BME280;2962;51.312;7.378;2023-02-10T05:54:05;99291.19;;;0.42;100.00
5872;BME280;2962;51.312;7.378;2023-02-10T05:56:30;99304.75;;;0.30;100.00
5872;BME280;2962;51.312;7.378;2023-02-10T05:58:56;99306.56;;;0.19;100.00
5872;BME280;2962;51.312;7.378;2023-02-10T06:01:21;99291.22;;;0.15;100.00
5872;BME280;2962;51.312;7.378;2023-02-10T06:03:47;99312.13;;;0.13;100.00
5872;BME280;2962;51.312;7.378;2023-02-10T06:06:12;99314.22;;;0.11;100.00
5872;BME280;2962;51.312;7.378;2023-02-10T06:08:37;99290.63;;;0.08;100.00
5872;BME280;2962;51.312;7.378;2023-02-10T06:11:03;99299.66;;;-0.04;100.00
5872;BME280;2962;51.312;7.378;2023-02-10T06:13:28;99307.06;;;-0.11;100.00
5872;BME280;2962;51.312;7.378;2023-02-10T06:15:53;99317.19;;;-0.18;100.00
5872;BME280;2962;51.312;7.378;2023-02-10T06:18:19;99302.84;;;-0.29;100.00
5872;BME280;2962;51.312;7.378;2023-02-10T06:20:45;99309.25;;;-0.08;100.00
5872;BME280;2962;51.312;7.378;2023-02-10T06:23:11;99319.44;;;-0.05;100.00
5872;BME280;2962;51.312;7.378;2023-02-10T06:25:36;99307.69;;;-0.04;100.00
5872;BME280;2962;51.312;7.378;2023-02-10T06:28:02;99326.78;;;0.05;100.00
5872;BME280;2962;51.312;7.378;2023-02-10T06:30:28;99322.03;;;-0.15;100.00
5872;BME280;2962;51.312;7.378;2023-02-10T06:32:53;99320.66;;;-0.17;100.00
5872;BME280;2962;51.312;7.378;2023-02-10T06:35:18;99327.69;;;-0.11;100.00
5872;BME280;2962;51.312;7.378;2023-02-10T06:37:43;99323.47;;;-0.29;100.00
5872;BME280;2962;51.312;7.378;2023-02-10T06:40:09;99320.34;;;-0.21;100.00
5872;BME280;2962;51.312;7.378;2023-02-10T06:42:35;99333.63;;;-0.04;100.00
5872;BME280;2962;51.312;7.378;2023-02-10T06:45:00;99342.34;;;-0.19;100.00
5872;BME280;2962;51.312;7.378;2023-02-10T06:47:26;99335.13;;;-0.18;100.00
5872;BME280;2962;51.312;7.378;2023-02-10T06:49:52;99344.50;;;-0.16;100.00
5872;BME280;2962;51.312;7.378;2023-02-10T06:52:17;99347.72;;;-0.19;100.00
5872;BME280;2962;51.312;7.378;2023-02-10T06:54:42;99353.28;;;0.02;100.00
5872;BME280;2962;51.312;7.378;2023-02-10T06:57:08;99352.16;;;-0.03;100.00
5872;BME280;2962;51.312;7.378;2023-02-10T06:59:33;99357.53;;;-0.03;100.00
5872;BME280;2962;51.312;7.378;2023-02-10T07:01:59;99365.38;;;0.04;100.00
5872;BME280;2962;51.312;7.378;2023-02-10T07:04:29;99349.97;;;-0.06;100.00
5872;BME280;2962;51.312;7.378;2023-02-10T07:06:56;99351.34;;;-0.03;100.00
5872;BME280;2962;51.312;7.378;2023-02-10T07:09:22;99352.47;;;0.01;100.00
5872;BME280;2962;51.312;7.378;2023-02-10T07:11:47;99350.44;;;0.13;100.00
5872;BME280;2962;51.312;7.378;2023-02-10T07:14:13;99360.06;;;0.09;100.00
5872;BME280;2962;51.312;7.378;2023-02-10T07:16:38;99358.84;;;0.22;100.00
5872;BME280;2962;51.312;7.378;2023-02-10T07:19:03;99364.31;;;0.05;100.00
5872;BME280;2962;51.312;7.378;2023-02-10T07:21:29;99362.88;;;-0.03;100.00
5872;BME280;2962;51.312;7.378;2023-02-10T07:23:54;99360.75;;;-0.01;100.00
5872;BME280;2962;51.312;7.378;2023-02-10T07:26:19;99358.59;;;-0.04;100.00
5872;BME280;2962;51.312;7.378;2023-02-10T07:28:45;99350.91;;;0.05;100.00
5872;BME280;2962;51.312;7.378;2023-02-10T07:31:11;99343.00;;;-0.07;100.00
5872;BME280;2962;51.312;7.378;2023-02-10T07:33:36;99347.63;;;-0.02;100.00
5872;BME280;2962;51.312;7.378;2023-02-10T07:36:03;99352.66;;;-0.06;100.00
5872;BME280;2962;51.312;7.378;2023-02-10T07:38:30;99344.88;;;-0.07;100.00
5872;BME280;2962;51.312;7.378;2023-02-10T07:40:55;99340.88;;;-0.05;100.00
5872;BME280;2962;51.312;7.378;2023-02-10T07:43:20;99339.22;;;-0.11;100.00
5872;BME280;2962;51.312;7.378;2023-02-10T07:45:46;99330.13;;;-0.10;100.00
5872;BME280;2962;51.312;7.378;2023-02-10T07:48:11;99335.66;;;-0.16;100.00
5872;BME280;2962;51.312;7.378;2023-02-10T07:50:36;99345.25;;;0.02;100.00
5872;BME280;2962;51.312;7.378;2023-02-10T07:53:02;99357.84;;;0.01;100.00
5872;BME280;2962;51.312;7.378;2023-02-10T07:55:27;99347.59;;;0.25;100.00
5872;BME280;2962;51.312;7.378;2023-02-10T07:57:52;99357.91;;;0.11;100.00
5872;BME280;2962;51.312;7.378;2023-02-10T08:00:18;99355.63;;;0.20;100.00
5872;BME280;2962;51.312;7.378;2023-02-10T08:02:43;99369.88;;;0.26;100.00
5872;BME280;2962;51.312;7.378;2023-02-10T08:05:09;99359.13;;;0.26;100.00
5872;BME280;2962;51.312;7.378;2023-02-10T08:07:35;99373.34;;;0.26;100.00
5872;BME280;2962;51.312;7.378;2023-02-10T08:10:00;99364.41;;;0.42;100.00
5872;BME280;2962;51.312;7.378;2023-02-10T08:12:25;99371.63;;;0.42;100.00
5872;BME280;2962;51.312;7.378;2023-02-10T08:14:51;99365.91;;;0.33;100.00
5872;BME280;2962;51.312;7.378;2023-02-10T08:17:16;99364.41;;;0.42;100.00
5872;BME280;2962;51.312;7.378;2023-02-10T08:19:41;99366.06;;;0.48;100.00
5872;BME280;2962;51.312;7.378;2023-02-10T08:22:06;99376.47;;;0.45;100.00
5872;BME280;2962;51.312;7.378;2023-02-10T08:24:32;99375.94;;;0.43;100.00
5872;BME280;2962;51.312;7.378;2023-02-10T08:26:57;99354.72;;;0.41;100.00
5872;BME280;2962;51.312;7.378;2023-02-10T08:29:22;99378.97;;;0.52;100.00
5872;BME280;2962;51.312;7.378;2023-02-10T08:31:51;99379.44;;;0.43;100.00
5872;BME280;2962;51.312;7.378;2023-02-10T08:34:19;99364.91;;;0.39;100.00
5872;BME280;2962;51.312;7.378;2023-02-10T08:36:45;99374.06;;;0.43;100.00
5872;BME280;2962;51.312;7.378;2023-02-10T08:39:11;99378.97;;;0.52;100.00
5872;BME280;2962;51.312;7.378;2023-02-10T08:41:37;99372.50;;;0.47;100.00
5872;BME280;2962;51.312;7.378;2023-02-10T08:44:02;99377.34;;;0.51;100.00
5872;BME280;2962;51.312;7.378;2023-02-10T08:46:28;99373.69;;;0.62;100.00
5872;BME280;2962;51.312;7.378;2023-02-10T08:48:53;99380.66;;;0.63;100.00
5872;BME280;2962;51.312;7.378;2023-02-10T08:51:18;99364.28;;;0.59;100.00
5872;BME280;2962;51.312;7.378;2023-02-10T08:53:44;99371.34;;;0.70;100.00
5872;BME280;2962;51.312;7.378;2023-02-10T08:56:16;99377.50;;;0.71;100.00
5872;BME280;2962;51.312;7.378;2023-02-10T08:58:42;99387.00;;;0.84;100.00
5872;BME280;2962;51.312;7.378;2023-02-10T09:01:10;99377.72;;;0.96;100.00
5872;BME280;2962;51.312;7.378;2023-02-10T09:03:36;99387.19;;;1.09;100.00
5872;BME280;2962;51.312;7.378;2023-02-10T09:06:02;99380.41;;;1.02;100.00
5872;BME280;2962;51.312;7.378;2023-02-10T09:08:27;99379.41;;;1.08;100.00
5872;BME280;2962;51.312;7.378;2023-02-10T09:10:52;99394.25;;;1.20;100.00
5872;BME280;2962;51.312;7.378;2023-02-10T09:13:17;99388.44;;;1.39;100.00
5872;BME280;2962;51.312;7.378;2023-02-10T09:15:43;99391.66;;;1.41;100.00
5872;BME280;2962;51.312;7.378;2023-02-10T09:18:09;99388.47;;;1.44;100.00
5872;BME280;2962;51.312;7.378;2023-02-10T09:20:35;99379.22;;;1.77;100.00
5872;BME280;2962;51.312;7.378;2023-02-10T09:23:01;99389.97;;;1.77;100.00
5872;BME280;2962;51.312;7.378;2023-02-10T09:25:26;99384.84;;;1.76;100.00
5872;BME280;2962;51.312;7.378;2023-02-10T09:27:52;99393.81;;;1.97;100.00
5872;BME280;2962;51.312;7.378;2023-02-10T09:30:20;99390.34;;;2.11;100.00
5872;BME280;2962;51.312;7.378;2023-02-10T09:32:45;99391.69;;;2.19;100.00
5872;BME280;2962;51.312;7.378;2023-02-10T09:35:10;99386.66;;;2.48;100.00
5872;BME280;2962;51.312;7.378;2023-02-10T09:37:36;99390.16;;;2.43;100.00
5872;BME280;2962;51.312;7.378;2023-02-10T09:40:01;99400.91;;;2.43;100.00
5872;BME280;2962;51.312;7.378;2023-02-10T09:42:57;99399.00;;;2.24;100.00
5872;BME280;2962;51.312;7.378;2023-02-10T09:45:31;99402.50;;;2.29;100.00
5872;BME280;2962;51.312;7.378;2023-02-10T09:50:47;99413.81;;;2.31;100.00
5872;BME280;2962;51.312;7.378;2023-02-10T09:53:22;99401.88;;;2.02;100.00
5872;BME280;2962;51.312;7.378;2023-02-10T09:55:57;99410.16;;;1.85;100.00
5872;BME280;2962;51.312;7.378;2023-02-10T09:58:31;99414.81;;;2.05;100.00
5872;BME280;2962;51.312;7.378;2023-02-10T10:01:03;99420.69;;;2.02;100.00
5872;BME280;2962;51.312;7.378;2023-02-10T10:03:38;99412.63;;;1.97;100.00
5872;BME280;2962;51.312;7.378;2023-02-10T10:06:23;99409.38;;;1.89;100.00
5872;BME280;2962;51.312;7.378;2023-02-10T10:09:02;99433.56;;;1.94;100.00
5872;BME280;2962;51.312;7.378;2023-02-10T10:11:42;99441.63;;;1.89;100.00
5872;BME280;2962;51.312;7.378;2023-02-10T10:17:05;99436.84;;;2.02;100.00
5872;BME280;2962;51.312;7.378;2023-02-10T10:31:14;99422.34;;;2.08;100.00
5872;BME280;2962;51.312;7.378;2023-02-10T10:33:49;99415.91;;;2.14;100.00
5872;BME280;2962;51.312;7.378;2023-02-10T10:36:19;99405.66;;;2.11;100.00
5872;BME280;2962;51.312;7.378;2023-02-10T10:38:54;99405.19;;;2.29;100.00
5872;BME280;2962;51.312;7.378;2023-02-10T10:41:25;99411.63;;;2.28;100.00
5872;BME280;2962;51.312;7.378;2023-02-10T10:43:53;99422.97;;;2.40;100.00
5872;BME280;2962;51.312;7.378;2023-02-10T10:46:40;99414.03;;;2.19;100.00
5872;BME280;2962;51.312;7.378;2023-02-10T10:49:06;99406.22;;;2.08;100.00
5872;BME280;2962;51.312;7.378;2023-02-10T10:51:31;99410.81;;;2.23;100.00
5872;BME280;2962;51.312;7.378;2023-02-10T10:53:59;99412.97;;;2.20;100.00
5872;BME280;2962;51.312;7.378;2023-02-10T10:59:13;99412.50;;;2.54;100.00
5872;BME280;2962;51.312;7.378;2023-02-10T11:01:41;99399.84;;;2.55;100.00
5872;BME280;2962;51.312;7.378;2023-02-10T11:04:11;99395.81;;;2.62;100.00
5872;BME280;2962;51.312;7.378;2023-02-10T11:06:39;99392.03;;;2.68;100.00
5872;BME280;2962;51.312;7.378;2023-02-10T11:09:30;99400.38;;;2.87;100.00
5872;BME280;2962;51.312;7.378;2023-02-10T11:14:43;99392.88;;;2.54;100.00
5872;BME280;2962;51.312;7.378;2023-02-10T11:17:35;99393.13;;;2.47;100.00
5872;BME280;2962;51.312;7.378;2023-02-10T11:20:16;99381.28;;;2.48;100.00
5872;BME280;2962;51.312;7.378;2023-02-10T11:22:44;99381.81;;;2.60;100.00
5872;BME280;2962;51.312;7.378;2023-02-10T11:25:30;99384.22;;;2.52;100.00
5872;BME280;2962;51.312;7.378;2023-02-10T11:27:57;99380.47;;;2.53;100.00
5872;BME280;2962;51.312;7.378;2023-02-10T11:30:30;99382.09;;;2.64;100.00
5872;BME280;2962;51.312;7.378;2023-02-10T11:32:58;99381.81;;;2.86;100.00
5872;BME280;2962;51.312;7.378;2023-02-10T11:35:25;99365.41;;;2.77;100.00
5872;BME280;2962;51.312;7.378;2023-02-10T11:37:59;99365.41;;;2.62;100.00
5872;BME280;2962;51.312;7.378;2023-02-10T11:40:38;99368.53;;;3.40;100.00
5872;BME280;2962;51.312;7.378;2023-02-10T11:43:13;99359.25;;;3.77;100.00
5872;BME280;2962;51.312;7.378;2023-02-10T11:45:52;99363.78;;;3.92;100.00
5872;BME280;2962;51.312;7.378;2023-02-10T11:48:20;99351.31;;;4.01;100.00
5872;BME280;2962;51.312;7.378;2023-02-10T11:50:46;99360.97;;;4.07;100.00
5872;BME280;2962;51.312;7.378;2023-02-10T11:53:22;99361.72;;;4.23;100.00
5872;BME280;2962;51.312;7.378;2023-02-10T12:04:14;99340.81;;;4.39;100.00
5872;BME280;2962;51.312;7.378;2023-02-10T12:09:40;99349.03;;;3.74;100.00
5872;BME280;2962;51.312;7.378;2023-02-10T12:12:20;99352.09;;;3.37;100.00
5872;BME280;2962;51.312;7.378;2023-02-10T12:28:43;99341.97;;;4.28;100.00
5872;BME280;2962;51.312;7.378;2023-02-10T12:34:06;99321.84;;;5.79;100.00
5872;BME280;2962;51.312;7.378;2023-02-10T12:36:50;99310.25;;;7.15;100.00
5872;BME280;2962;51.312;7.378;2023-02-10T12:39:22;99306.38;;;7.34;100.00
5872;BME280;2962;51.312;7.378;2023-02-10T12:44:37;99300.41;;;7.05;100.00
5872;BME280;2962;51.312;7.378;2023-02-10T12:47:19;99289.59;;;6.72;100.00
5872;BME280;2962;51.312;7.378;2023-02-10T12:52:31;99288.16;;;7.49;100.00
5872;BME280;2962;51.312;7.378;2023-02-10T12:55:03;99285.75;;;8.11;100.00
5872;BME280;2962;51.312;7.378;2023-02-10T13:00:15;99281.72;;;8.08;100.00
5872;BME280;2962;51.312;7.378;2023-02-10T13:02:57;99278.84;;;8.27;100.00
5872;BME280;2962;51.312;7.378;2023-02-10T13:05:34;99276.78;;;8.47;100.00
5872;BME280;2962;51.312;7.378;2023-02-10T13:08:09;99284.38;;;8.22;100.00
5872;BME280;2962;51.312;7.378;2023-02-10T13:10:42;99278.00;;;8.94;100.00
5872;BME280;2962;51.312;7.378;2023-02-10T13:13:14;99276.47;;;9.11;100.00
5872;BME280;2962;51.312;7.378;2023-02-10T13:15:43;99261.84;;;9.38;100.00
5872;BME280;2962;51.312;7.378;2023-02-10T13:18:24;99248.56;;;9.27;100.00
5872;BME280;2962;51.312;7.378;2023-02-10T13:21:29;99258.66;;;9.36;100.00
5872;BME280;2962;51.312;7.378;2023-02-10T13:24:28;99256.19;;;9.83;100.00
5872;BME280;2962;51.312;7.378;2023-02-10T13:30:41;99260.38;;;10.06;100.00
5872;BME280;2962;51.312;7.378;2023-02-10T13:35:40;99262.13;;;10.54;100.00
5872;BME280;2962;51.312;7.378;2023-02-10T13:38:08;99267.34;;;9.46;100.00
5872;BME280;2962;51.312;7.378;2023-02-10T13:40:55;99268.09;;;7.50;100.00
5872;BME280;2962;51.312;7.378;2023-02-10T13:43:45;99265.00;;;6.55;100.00
5872;BME280;2962;51.312;7.378;2023-02-10T13:46:23;99256.06;;;6.03;100.00
5872;BME280;2962;51.312;7.378;2023-02-10T13:48:56;99255.66;;;5.53;100.00
5872;BME280;2962;51.312;7.378;2023-02-10T13:51:32;99256.47;;;5.96;100.00
5872;BME280;2962;51.312;7.378;2023-02-10T13:53:59;99251.75;;;6.02;100.00
5872;BME280;2962;51.312;7.378;2023-02-10T13:56:28;99240.38;;;5.43;100.00
5872;BME280;2962;51.312;7.378;2023-02-10T14:06:51;99250.06;;;6.25;100.00
5872;BME280;2962;51.312;7.378;2023-02-10T14:11:50;99242.63;;;5.98;100.00
5872;BME280;2962;51.312;7.378;2023-02-10T14:14:39;99235.88;;;5.57;100.00
5872;BME280;2962;51.312;7.378;2023-02-10T14:17:06;99237.66;;;5.24;100.00
5872;BME280;2962;51.312;7.378;2023-02-10T14:19:37;99242.28;;;5.00;100.00
5872;BME280;2962;51.312;7.378;2023-02-10T14:22:04;99239.44;;;5.10;100.00
5872;BME280;2962;51.312;7.378;2023-02-10T14:24:33;99212.66;;;4.89;100.00
5872;BME280;2962;51.312;7.378;2023-02-10T14:27:05;99224.44;;;4.99;100.00
5872;BME280;2962;51.312;7.378;2023-02-10T14:29:33;99225.28;;;5.18;100.00
5872;BME280;2962;51.312;7.378;2023-02-10T14:32:01;99231.03;;;6.11;100.00
5872;BME280;2962;51.312;7.378;2023-02-10T14:34:32;99221.34;;;6.43;100.00
5872;BME280;2962;51.312;7.378;2023-02-10T14:37:18;99226.53;;;7.13;100.00
5872;BME280;2962;51.312;7.378;2023-02-10T14:42:20;99220.19;;;6.76;100.00
5872;BME280;2962;51.312;7.378;2023-02-10T14:44:51;99222.50;;;6.83;100.00
5872;BME280;2962;51.312;7.378;2023-02-10T14:47:19;99223.63;;;6.35;100.00
5872;BME280;2962;51.312;7.378;2023-02-10T14:49:52;99223.09;;;7.21;100.00
5872;BME280;2962;51.312;7.378;2023-02-10T14:52:31;99222.63;;;8.28;100.00
5872;BME280;2962;51.312;7.378;2023-02-10T14:54:58;99217.56;;;8.58;100.00
5872;BME280;2962;51.312;7.378;2023-02-10T14:57:26;99214.72;;;8.40;100.00
5872;BME280;2962;51.312;7.378;2023-02-10T14:59:58;99230.94;;;8.31;100.00
5872;BME280;2962;51.312;7.378;2023-02-10T15:02:26;99228.66;;;7.66;100.00
5872;BME280;2962;51.312;7.378;2023-02-10T15:04:56;99230.72;;;7.47;100.00
5872;BME280;2962;51.312;7.378;2023-02-10T15:07:25;99217.53;;;6.44;100.00
5872;BME280;2962;51.312;7.378;2023-02-10T15:09:52;99218.38;;;5.87;100.00
5872;BME280;2962;51.312;7.378;2023-02-10T15:12:21;99208.78;;;6.33;100.00